Time;durP1;ratioP1;P1;durP2;ratioP2;P2;SDS_P1;SDS_P2;PMS_P1;PMS_P2;Temp;Humidity;BMP_temperature;BMP_pressure;BME280_temperature;BME280_humidity;BME280_pressure;Samples;Min_cycle;Max_cycle;Signal;HPM_P1;HPM_P2
2022/05/24 00:01:56;;;;;;;;;;;13.80;99.90;;;;;;5096279;28;20381;-54
2022/05/24 00:04:22;;;;;;;;;;;13.80;99.90;;;;;;5104246;28;19927;-57
2022/05/24 00:06:47;;;;;;;;;;;13.70;99.90;;;;;;5102827;28;20347;-55
2022/05/24 00:09:13;;;;;;;;;;;13.70;99.90;;;;;;5102494;28;19928;-56
2022/05/24 00:11:39;;;;;;;;;;;13.60;99.90;;;;;;5106560;28;19924;-47
2022/05/24 00:14:04;;;;;;;;;;;13.70;99.90;;;;;;5106065;28;20010;-53
2022/05/24 00:16:30;;;;;;;;;;;13.70;99.90;;;;;;5085275;28;19924;-56
2022/05/24 00:18:56;;;;;;;;;;;13.60;99.90;;;;;;5103001;28;19928;-50
2022/05/24 00:21:21;;;;;;;;;;;13.60;99.90;;;;;;5095160;28;20014;-56
2022/05/24 00:23:47;;;;;;;;;;;13.70;99.90;;;;;;5105040;28;20337;-57
2022/05/24 00:26:16;;;;;;;;;;;13.60;99.90;;;;;;5080918;28;20408;-57
2022/05/24 00:28:42;;;;;;;;;;;13.60;99.90;;;;;;5105361;28;20060;-57
2022/05/24 00:31:07;;;;;;;;;;;13.60;99.90;;;;;;5100601;28;19928;-56
2022/05/24 00:33:34;;;;;;;;;;;13.60;99.90;;;;;;5091597;28;19981;-56
2022/05/24 00:36:00;;;;;;;;;;;13.60;99.90;;;;;;5106539;28;20062;-56
2022/05/24 00:38:30;;;;;;;;;;;13.60;99.90;;;;;;5103559;28;20019;-55
2022/05/24 00:41:26;;;;;;;;;;;13.60;99.90;;;;;;5099273;28;19934;-56
2022/05/24 00:44:03;;;;;;;;;;;13.50;99.90;;;;;;5079024;28;19920;-55
2022/05/24 00:46:48;;;;;;;;;;;13.50;99.90;;;;;;5105377;28;19924;-55
2022/05/24 00:49:17;;;;;;;;;;;13.50;99.90;;;;;;5093802;28;19923;-55
2022/05/24 00:51:48;;;;;;;;;;;13.40;99.90;;;;;;5102387;28;19967;-56
2022/05/24 00:54:14;;;;;;;;;;;13.40;99.90;;;;;;5105788;28;19947;-55
2022/05/24 00:56:45;;;;;;;;;;;13.40;99.90;;;;;;5083220;28;19935;-56
2022/05/24 00:59:18;;;;;;;;;;;13.40;99.90;;;;;;5110553;28;19920;-56
2022/05/24 01:01:46;;;;;;;;;;;13.40;99.90;;;;;;5105933;28;19931;-55
2022/05/24 01:04:13;;;;;;;;;;;13.40;99.90;;;;;;5104768;28;20575;-51
2022/05/24 01:06:39;;;;;;;;;;;13.40;99.90;;;;;;5096198;27;20385;-55
2022/05/24 01:09:08;;;;;;;;;;;13.40;99.90;;;;;;5094530;28;19966;-50
2022/05/24 01:11:38;;;;;;;;;;;13.40;99.90;;;;;;5082665;28;20014;-55
2022/05/24 01:14:04;;;;;;;;;;;13.30;99.90;;;;;;5090309;28;19980;-55
2022/05/24 01:16:29;;;;;;;;;;;13.40;99.90;;;;;;5104317;28;19990;-53
2022/05/24 01:18:55;;;;;;;;;;;13.40;99.90;;;;;;5108999;28;19967;-55
2022/05/24 01:21:21;;;;;;;;;;;13.40;99.90;;;;;;5105749;28;20292;-54
2022/05/24 01:23:49;;;;;;;;;;;13.40;99.90;;;;;;5108769;28;19919;-56
2022/05/24 01:26:32;;;;;;;;;;;13.40;99.90;;;;;;5106961;28;19973;-56
2022/05/24 01:28:59;;;;;;;;;;;13.40;99.90;;;;;;5103045;28;19928;-56
2022/05/24 01:31:25;;;;;;;;;;;13.40;99.90;;;;;;5104638;28;20427;-55
2022/05/24 01:36:38;;;;;;;;;;;13.40;99.90;;;;;;5103314;28;20292;-57
2022/05/24 01:39:05;;;;;;;;;;;13.40;99.90;;;;;;5105835;28;19924;-55
2022/05/24 01:41:51;;;;;;;;;;;13.50;99.90;;;;;;5105707;28;19934;-50
2022/05/24 01:44:28;;;;;;;;;;;13.50;99.90;;;;;;5102076;28;20426;-55
2022/05/24 01:46:54;;;;;;;;;;;13.50;99.90;;;;;;5095023;28;20252;-56
2022/05/24 01:49:30;;;;;;;;;;;13.50;99.90;;;;;;5105241;28;19927;-55
2022/05/24 01:52:01;;;;;;;;;;;13.60;99.90;;;;;;5104432;28;19920;-57
2022/05/24 01:54:27;;;;;;;;;;;13.60;99.90;;;;;;5109010;28;20295;-56
2022/05/24 01:57:06;;;;;;;;;;;13.60;99.90;;;;;;5099463;28;19930;-56
2022/05/24 01:59:31;;;;;;;;;;;13.60;99.90;;;;;;5103967;28;19979;-53
2022/05/24 02:01:58;;;;;;;;;;;13.60;99.90;;;;;;5104774;28;19924;-57
2022/05/24 02:04:25;;;;;;;;;;;13.60;99.90;;;;;;5104390;28;19922;-56
2022/05/24 02:06:57;;;;;;;;;;;13.60;99.90;;;;;;5105513;28;20288;-49
2022/05/24 02:09:22;;;;;;;;;;;13.60;99.90;;;;;;5099922;28;19924;-55
2022/05/24 02:11:48;;;;;;;;;;;13.60;99.90;;;;;;5101608;28;19950;-57
2022/05/24 02:14:16;;;;;;;;;;;13.70;99.90;;;;;;5085033;28;19932;-56
2022/05/24 02:16:46;;;;;;;;;;;13.70;99.90;;;;;;5101315;28;19924;-56
2022/05/24 02:19:13;;;;;;;;;;;13.70;99.90;;;;;;5106536;28;19920;-56
2022/05/24 02:21:40;;;;;;;;;;;13.70;99.90;;;;;;5104538;28;20006;-57
2022/05/24 02:24:22;;;;;;;;;;;13.70;99.90;;;;;;5103603;28;20010;-56
2022/05/24 02:26:48;;;;;;;;;;;13.70;99.90;;;;;;5098194;28;20388;-57
2022/05/24 02:29:14;;;;;;;;;;;13.70;99.90;;;;;;5104767;28;20010;-57
2022/05/24 02:31:40;;;;;;;;;;;13.70;99.90;;;;;;5097964;28;19932;-56
2022/05/24 02:34:06;;;;;;;;;;;13.70;99.90;;;;;;5103042;28;20291;-57
2022/05/24 02:36:31;;;;;;;;;;;13.70;99.90;;;;;;5104672;28;19959;-54
2022/05/24 02:38:57;;;;;;;;;;;13.80;99.90;;;;;;5086145;27;20446;-56
2022/05/24 02:41:28;;;;;;;;;;;13.80;99.90;;;;;;5097379;27;20367;-57
2022/05/24 02:43:54;;;;;;;;;;;13.80;99.90;;;;;;5102636;28;20376;-57
2022/05/24 02:46:20;;;;;;;;;;;13.80;99.90;;;;;;5103718;28;19999;-57
2022/05/24 02:48:47;;;;;;;;;;;13.80;99.90;;;;;;5098312;28;19963;-57
2022/05/24 02:51:13;;;;;;;;;;;13.80;99.90;;;;;;5105622;28;19919;-57
2022/05/24 02:53:40;;;;;;;;;;;13.80;99.90;;;;;;5105269;28;19920;-56
2022/05/24 02:56:06;;;;;;;;;;;13.80;99.90;;;;;;5104509;28;20311;-55
2022/05/24 02:58:31;;;;;;;;;;;13.80;99.90;;;;;;5101504;28;19920;-56
2022/05/24 03:00:57;;;;;;;;;;;13.80;99.90;;;;;;5104070;28;19931;-57
2022/05/24 03:03:22;;;;;;;;;;;13.80;99.90;;;;;;5102249;28;19919;-58
2022/05/24 03:05:48;;;;;;;;;;;13.80;99.90;;;;;;5103051;28;19955;-58
2022/05/24 03:10:58;;;;;;;;;;;13.80;99.90;;;;;;5103963;28;20009;-58
2022/05/24 03:16:11;;;;;;;;;;;13.80;99.90;;;;;;5103136;28;20006;-57
2022/05/24 03:18:36;;;;;;;;;;;13.80;99.90;;;;;;5100363;28;20371;-57
2022/05/24 03:21:02;;;;;;;;;;;13.80;99.90;;;;;;5098135;28;19961;-55
2022/05/24 03:23:28;;;;;;;;;;;13.80;99.90;;;;;;5109889;28;19965;-57
2022/05/24 03:25:53;;;;;;;;;;;13.80;99.90;;;;;;5101506;28;20324;-57
2022/05/24 03:28:22;;;;;;;;;;;13.70;99.90;;;;;;5104059;27;19931;-56
2022/05/24 03:30:48;;;;;;;;;;;13.80;99.90;;;;;;5104188;28;19936;-56
2022/05/24 03:33:14;;;;;;;;;;;13.80;99.90;;;;;;5104866;28;19919;-57
2022/05/24 03:35:40;;;;;;;;;;;13.80;99.90;;;;;;5099671;28;19930;-55
2022/05/24 03:38:06;;;;;;;;;;;13.80;99.90;;;;;;5105344;28;20300;-55
2022/05/24 03:40:32;;;;;;;;;;;13.80;99.90;;;;;;5097130;28;19928;-55
2022/05/24 03:42:57;;;;;;;;;;;13.80;99.90;;;;;;5101644;28;19919;-57
2022/05/24 03:45:23;;;;;;;;;;;13.80;99.90;;;;;;5104564;28;20296;-57
2022/05/24 03:47:49;;;;;;;;;;;13.70;99.90;;;;;;5102153;28;20026;-56
2022/05/24 03:50:15;;;;;;;;;;;13.70;99.90;;;;;;5099551;28;20002;-57
2022/05/24 03:52:40;;;;;;;;;;;13.70;99.90;;;;;;5102891;28;19923;-55
2022/05/24 03:55:06;;;;;;;;;;;13.70;99.90;;;;;;5095656;28;20278;-49
2022/05/24 04:00:18;;;;;;;;;;;13.50;99.90;;;;;;5098263;28;19934;-55
2022/05/24 04:02:44;;;;;;;;;;;13.50;99.90;;;;;;5103882;28;19934;-50
2022/05/24 04:05:10;;;;;;;;;;;13.50;99.90;;;;;;5100331;28;19923;-57
2022/05/24 04:07:36;;;;;;;;;;;13.40;99.90;;;;;;5100566;28;20489;-55
2022/05/24 04:10:02;;;;;;;;;;;13.40;99.90;;;;;;5103053;28;19999;-58
2022/05/24 04:12:28;;;;;;;;;;;13.40;99.90;;;;;;5096180;28;19973;-57
2022/05/24 04:14:53;;;;;;;;;;;13.30;99.90;;;;;;5103395;28;20294;-56
2022/05/24 04:17:20;;;;;;;;;;;13.30;99.90;;;;;;5105981;28;19928;-57
2022/05/24 04:19:45;;;;;;;;;;;13.30;99.90;;;;;;5083200;28;19996;-52
2022/05/24 04:22:11;;;;;;;;;;;13.30;99.90;;;;;;5105846;28;19931;-54
2022/05/24 04:24:36;;;;;;;;;;;13.30;99.90;;;;;;5102909;28;19996;-57
2022/05/24 04:27:04;;;;;;;;;;;13.30;99.90;;;;;;5082571;28;20347;-56
2022/05/24 04:29:29;;;;;;;;;;;13.20;99.90;;;;;;5097878;28;20364;-57
2022/05/24 04:31:55;;;;;;;;;;;13.30;99.90;;;;;;5103015;28;19934;-57
2022/05/24 04:34:20;;;;;;;;;;;13.20;99.90;;;;;;5103797;28;19923;-57
2022/05/24 04:36:46;;;;;;;;;;;13.20;99.90;;;;;;5077441;28;19993;-55
2022/05/24 04:39:12;;;;;;;;;;;13.10;99.90;;;;;;5083715;28;19963;-56
2022/05/24 04:44:22;;;;;;;;;;;13.10;99.90;;;;;;5097057;28;19928;-60
2022/05/24 04:49:32;;;;;;;;;;;13.10;99.90;;;;;;5098348;28;19985;-56
2022/05/24 04:51:58;;;;;;;;;;;13.00;99.90;;;;;;5101195;28;19920;-56
2022/05/24 04:54:23;;;;;;;;;;;13.00;99.90;;;;;;5106557;28;20398;-58
2022/05/24 04:56:49;;;;;;;;;;;13.00;99.90;;;;;;5104954;28;19934;-57
2022/05/24 04:59:16;;;;;;;;;;;12.90;99.90;;;;;;5102386;28;19974;-55
2022/05/24 05:01:42;;;;;;;;;;;12.90;99.90;;;;;;5101982;28;20380;-56
2022/05/24 05:04:08;;;;;;;;;;;12.90;99.90;;;;;;5105481;28;19923;-47
2022/05/24 05:06:33;;;;;;;;;;;12.90;99.90;;;;;;5101328;28;19932;-61
2022/05/24 05:08:59;;;;;;;;;;;13.00;99.90;;;;;;5102429;28;20330;-57
2022/05/24 05:11:24;;;;;;;;;;;12.90;99.90;;;;;;5108192;28;20391;-56
2022/05/24 05:13:51;;;;;;;;;;;13.00;99.90;;;;;;5109011;28;19924;-57
2022/05/24 05:16:16;;;;;;;;;;;13.00;99.90;;;;;;5103710;27;20394;-56
2022/05/24 05:18:42;;;;;;;;;;;13.00;99.90;;;;;;5104681;28;19927;-54
2022/05/24 05:21:07;;;;;;;;;;;13.00;99.90;;;;;;5084236;28;20339;-56
2022/05/24 05:23:33;;;;;;;;;;;13.10;99.90;;;;;;5103815;28;19920;-56
2022/05/24 05:25:58;;;;;;;;;;;13.10;99.90;;;;;;5106605;28;19924;-57
2022/05/24 05:28:24;;;;;;;;;;;13.20;99.90;;;;;;5106220;28;21153;-53
2022/05/24 05:33:34;;;;;;;;;;;13.30;99.90;;;;;;5102379;28;19920;-55
2022/05/24 05:36:00;;;;;;;;;;;13.30;99.90;;;;;;5074054;28;19946;-56
2022/05/24 05:38:25;;;;;;;;;;;13.30;99.90;;;;;;5074210;28;20322;-57
2022/05/24 05:40:52;;;;;;;;;;;13.30;99.90;;;;;;5080199;28;20009;-55
2022/05/24 05:43:17;;;;;;;;;;;13.30;99.90;;;;;;5081552;28;20019;-55
2022/05/24 05:45:43;;;;;;;;;;;13.30;99.90;;;;;;5080693;28;19923;-56
2022/05/24 05:48:08;;;;;;;;;;;13.40;99.90;;;;;;5084543;28;19924;-57
2022/05/24 05:50:34;;;;;;;;;;;13.40;99.90;;;;;;5081816;28;19931;-56
2022/05/24 05:53:03;;;;;;;;;;;13.40;99.90;;;;;;5085791;28;19928;-57
2022/05/24 05:55:29;;;;;;;;;;;13.50;99.90;;;;;;5078529;28;19924;-57
2022/05/24 05:57:55;;;;;;;;;;;13.40;99.90;;;;;;5081098;28;19928;-56
2022/05/24 06:00:20;;;;;;;;;;;13.40;99.90;;;;;;5079188;28;19929;-56
2022/05/24 06:02:46;;;;;;;;;;;13.40;99.90;;;;;;5056566;28;19985;-54
2022/05/24 06:05:12;;;;;;;;;;;13.40;99.90;;;;;;5085060;28;20396;-55
2022/05/24 06:07:38;;;;;;;;;;;13.40;99.90;;;;;;5078300;28;19920;-56
2022/05/24 06:10:06;;;;;;;;;;;13.40;99.90;;;;;;5079660;28;19920;-52
2022/05/24 06:12:31;;;;;;;;;;;13.40;99.90;;;;;;5083178;28;20443;-57
2022/05/24 06:14:57;;;;;;;;;;;13.40;99.90;;;;;;5079144;28;19931;-57
2022/05/24 06:17:23;;;;;;;;;;;13.40;99.90;;;;;;5080547;28;19920;-57
2022/05/24 06:19:48;;;;;;;;;;;13.40;99.90;;;;;;5082278;28;19974;-56
2022/05/24 06:22:14;;;;;;;;;;;13.50;99.90;;;;;;5082577;28;19928;-57
2022/05/24 06:24:39;;;;;;;;;;;13.50;99.90;;;;;;5085714;28;19920;-59
2022/05/24 06:27:05;;;;;;;;;;;13.40;99.90;;;;;;5085739;28;19924;-56
2022/05/24 06:29:32;;;;;;;;;;;13.40;99.90;;;;;;5083689;28;19961;-57
2022/05/24 06:31:57;;;;;;;;;;;13.50;99.90;;;;;;5084521;28;19927;-56
2022/05/24 06:34:23;;;;;;;;;;;13.50;99.90;;;;;;5083344;28;19924;-56
2022/05/24 06:36:48;;;;;;;;;;;13.50;99.90;;;;;;5081930;28;19932;-56
2022/05/24 06:39:14;;;;;;;;;;;13.60;99.90;;;;;;5081285;28;19925;-57
2022/05/24 06:41:40;;;;;;;;;;;13.60;99.90;;;;;;5086084;28;20384;-56
2022/05/24 06:44:05;;;;;;;;;;;13.60;99.90;;;;;;5079863;28;19943;-56
2022/05/24 06:46:31;;;;;;;;;;;13.70;99.90;;;;;;5079744;28;19936;-49
2022/05/24 06:48:56;;;;;;;;;;;13.70;99.90;;;;;;5064694;28;19935;-55
2022/05/24 06:51:22;;;;;;;;;;;13.60;99.90;;;;;;5079258;28;20296;-56
2022/05/24 06:53:48;;;;;;;;;;;13.60;99.90;;;;;;5078939;28;19925;-48
2022/05/24 06:56:14;;;;;;;;;;;13.70;99.90;;;;;;5080257;28;20036;-56
2022/05/24 06:58:39;;;;;;;;;;;13.70;99.90;;;;;;5077222;28;20817;-57
2022/05/24 07:03:51;;;;;;;;;;;13.80;99.90;;;;;;5082180;28;20565;-57
2022/05/24 07:06:17;;;;;;;;;;;13.80;99.90;;;;;;5061094;28;20477;-49
2022/05/24 07:08:43;;;;;;;;;;;13.80;99.90;;;;;;5077598;28;19970;-50
2022/05/24 07:11:10;;;;;;;;;;;13.90;99.90;;;;;;5075097;28;20368;-57
2022/05/24 07:13:36;;;;;;;;;;;13.90;99.90;;;;;;5087616;28;19926;-57
2022/05/24 07:16:02;;;;;;;;;;;14.00;99.90;;;;;;5080542;28;19928;-55
2022/05/24 07:18:27;;;;;;;;;;;14.00;99.90;;;;;;5074209;28;20060;-52
2022/05/24 07:20:53;;;;;;;;;;;14.00;99.90;;;;;;5062633;28;19993;-56
2022/05/24 07:23:20;;;;;;;;;;;14.00;99.90;;;;;;5084991;28;19927;-55
2022/05/24 07:25:46;;;;;;;;;;;14.00;99.90;;;;;;5083058;28;20010;-57
2022/05/24 07:28:15;;;;;;;;;;;14.10;99.90;;;;;;5080664;28;19924;-56
2022/05/24 07:30:41;;;;;;;;;;;14.10;99.90;;;;;;5060567;28;19928;-57
2022/05/24 07:33:07;;;;;;;;;;;14.10;99.90;;;;;;5081669;28;19924;-54
2022/05/24 07:35:33;;;;;;;;;;;14.20;99.90;;;;;;5078845;28;19928;-56
2022/05/24 07:37:59;;;;;;;;;;;14.20;99.90;;;;;;5081397;28;20342;-57
2022/05/24 07:45:57;;;;;;;;;;;14.40;99.90;;;;;;5074490;28;19924;-55
2022/05/24 07:48:23;;;;;;;;;;;14.60;99.90;;;;;;5071045;28;19924;-57
2022/05/24 07:50:50;;;;;;;;;;;14.60;99.90;;;;;;5076000;28;19977;-57
2022/05/24 07:53:16;;;;;;;;;;;14.70;99.90;;;;;;5083102;28;20054;-58
2022/05/24 07:55:42;;;;;;;;;;;14.80;99.90;;;;;;5060413;28;19984;-49
2022/05/24 07:58:08;;;;;;;;;;;14.80;99.90;;;;;;5080040;28;19924;-57
2022/05/24 08:00:35;;;;;;;;;;;14.90;99.90;;;;;;5080083;28;20009;-56
2022/05/24 08:03:01;;;;;;;;;;;14.90;99.90;;;;;;5086533;28;19920;-54
2022/05/24 08:05:29;;;;;;;;;;;14.90;99.90;;;;;;5077113;28;20021;-57
2022/05/24 08:07:55;;;;;;;;;;;15.00;99.90;;;;;;5075451;28;20329;-57
2022/05/24 08:10:20;;;;;;;;;;;15.00;99.90;;;;;;5079149;28;19972;-58
2022/05/24 08:12:46;;;;;;;;;;;15.10;99.90;;;;;;5078491;28;20377;-57
2022/05/24 08:15:12;;;;;;;;;;;15.10;99.90;;;;;;5080229;28;19993;-57
2022/05/24 08:17:38;;;;;;;;;;;15.20;99.90;;;;;;5078671;28;19984;-54
2022/05/24 08:20:05;;;;;;;;;;;15.30;99.90;;;;;;5065072;28;19931;-56
2022/05/24 08:22:30;;;;;;;;;;;15.40;99.90;;;;;;5084605;28;19985;-57
2022/05/24 08:24:56;;;;;;;;;;;15.50;99.90;;;;;;5048861;28;19921;-52
2022/05/24 08:27:21;;;;;;;;;;;15.60;99.90;;;;;;5084409;28;19920;-58
2022/05/24 08:29:47;;;;;;;;;;;15.80;99.90;;;;;;5081344;28;19924;-56
2022/05/24 08:32:12;;;;;;;;;;;15.80;99.90;;;;;;5084342;28;20433;-50
2022/05/24 08:34:38;;;;;;;;;;;15.80;99.90;;;;;;5088134;28;19935;-53
2022/05/24 08:37:05;;;;;;;;;;;15.90;99.90;;;;;;5087402;28;19994;-56
2022/05/24 08:39:30;;;;;;;;;;;15.90;99.90;;;;;;5073094;28;19928;-55
2022/05/24 08:41:59;;;;;;;;;;;15.90;99.90;;;;;;5071152;28;20418;-57
2022/05/24 08:50:09;;;;;;;;;;;15.50;99.90;;;;;;5086954;28;19924;-54
2022/05/24 08:53:10;;;;;;;;;;;15.30;99.90;;;;;;5081536;28;19928;-57
2022/05/24 08:55:40;;;;;;;;;;;15.20;99.90;;;;;;5009956;28;19961;-57
2022/05/24 08:58:10;;;;;;;;;;;15.00;99.90;;;;;;5064518;28;19924;-55
2022/05/24 09:00:40;;;;;;;;;;;15.00;99.90;;;;;;5075621;28;19979;-57
2022/05/24 09:03:06;;;;;;;;;;;15.10;99.90;;;;;;5083589;28;19981;-55
2022/05/24 09:05:36;;;;;;;;;;;15.20;99.90;;;;;;5085857;28;19920;-59
2022/05/24 09:08:24;;;;;;;;;;;15.30;99.90;;;;;;5082686;28;20261;-59
2022/05/24 09:10:52;;;;;;;;;;;15.30;99.90;;;;;;5088086;28;19978;-57
2022/05/24 09:13:33;;;;;;;;;;;15.40;99.90;;;;;;5082334;28;19924;-56
2022/05/24 09:16:02;;;;;;;;;;;15.40;99.90;;;;;;5087710;28;20022;-58
2022/05/24 09:18:36;;;;;;;;;;;15.50;99.90;;;;;;5089071;28;20380;-58
2022/05/24 09:21:01;;;;;;;;;;;15.60;99.90;;;;;;5085000;28;20015;-62
2022/05/24 09:23:35;;;;;;;;;;;15.60;99.90;;;;;;5087032;28;20060;-58
2022/05/24 09:26:06;;;;;;;;;;;15.50;99.90;;;;;;5062830;28;20373;-59
2022/05/24 09:28:42;;;;;;;;;;;15.40;99.90;;;;;;5080926;28;20011;-57
2022/05/24 09:31:09;;;;;;;;;;;15.30;99.90;;;;;;5082351;28;19932;-56
2022/05/24 09:33:38;;;;;;;;;;;15.20;99.90;;;;;;5089049;28;19924;-57
2022/05/24 09:36:04;;;;;;;;;;;15.20;99.90;;;;;;5088356;28;19985;-57
2022/05/24 09:38:34;;;;;;;;;;;15.30;99.90;;;;;;5061778;28;19920;-58
2022/05/24 09:41:08;;;;;;;;;;;15.20;99.70;;;;;;5086933;28;19924;-58
2022/05/24 09:43:35;;;;;;;;;;;15.20;99.90;;;;;;5085984;28;19947;-56
2022/05/24 09:46:17;;;;;;;;;;;15.20;99.90;;;;;;5076145;28;20019;-59
2022/05/24 09:48:59;;;;;;;;;;;15.50;99.90;;;;;;5074681;28;19921;-58
2022/05/24 09:51:33;;;;;;;;;;;15.60;99.90;;;;;;5084898;28;20004;-56
2022/05/24 09:53:58;;;;;;;;;;;15.70;99.90;;;;;;5071996;28;20395;-55
2022/05/24 09:56:26;;;;;;;;;;;15.90;99.90;;;;;;5082040;28;19943;-57
2022/05/24 09:58:54;;;;;;;;;;;16.10;99.90;;;;;;5079427;28;19927;-57
2022/05/24 10:01:35;;;;;;;;;;;16.20;99.90;;;;;;5081092;28;19970;-56
2022/05/24 10:04:12;;;;;;;;;;;15.90;99.90;;;;;;5084731;28;19926;-56
2022/05/24 10:06:40;;;;;;;;;;;15.50;99.90;;;;;;5087085;28;19951;-57
2022/05/24 10:09:18;;;;;;;;;;;14.90;99.90;;;;;;5087695;28;19920;-55
2022/05/24 10:12:04;;;;;;;;;;;14.50;99.90;;;;;;5081353;28;20035;-56
2022/05/24 10:14:48;;;;;;;;;;;14.10;99.90;;;;;;5081076;28;19921;-53
2022/05/24 10:17:24;;;;;;;;;;;13.70;99.90;;;;;;5081029;28;20379;-54
2022/05/24 10:19:59;;;;;;;;;;;13.50;99.90;;;;;;5080071;28;20388;-53
2022/05/24 10:22:35;;;;;;;;;;;13.30;99.90;;;;;;5076842;28;19928;-55
2022/05/24 10:25:04;;;;;;;;;;;13.10;99.90;;;;;;5082159;28;19920;-55
2022/05/24 10:27:36;;;;;;;;;;;13.00;99.90;;;;;;5082183;28;19927;-55
2022/05/24 10:30:16;;;;;;;;;;;12.90;99.90;;;;;;5073484;28;19928;-55
2022/05/24 10:38:55;;;;;;;;;;;12.60;99.90;;;;;;5084738;28;20400;-56
2022/05/24 10:41:59;;;;;;;;;;;12.60;99.90;;;;;;5080937;28;19931;-56
2022/05/24 10:44:25;;;;;;;;;;;12.70;99.90;;;;;;5032749;28;19962;-55
2022/05/24 10:47:11;;;;;;;;;;;12.80;99.90;;;;;;5033629;28;19924;-55
2022/05/24 10:49:42;;;;;;;;;;;12.90;99.90;;;;;;5064717;28;20030;-55
2022/05/24 10:52:19;;;;;;;;;;;13.00;99.90;;;;;;5080565;28;19920;-55
2022/05/24 10:54:48;;;;;;;;;;;13.10;99.90;;;;;;5079859;28;19928;-55
2022/05/24 10:57:22;;;;;;;;;;;13.30;99.90;;;;;;5082946;28;19928;-53
2022/05/24 11:00:07;;;;;;;;;;;13.40;99.90;;;;;;5084744;28;19989;-50
2022/05/24 11:02:52;;;;;;;;;;;13.40;99.90;;;;;;5083977;28;20372;-55
2022/05/24 11:05:25;;;;;;;;;;;13.40;99.90;;;;;;5086365;28;19965;-56
2022/05/24 11:07:55;;;;;;;;;;;13.40;99.90;;;;;;5084802;28;20385;-55
2022/05/24 11:10:24;;;;;;;;;;;13.30;99.90;;;;;;5084984;28;19927;-55
2022/05/24 11:12:51;;;;;;;;;;;13.20;99.90;;;;;;5085452;28;19929;-55
2022/05/24 11:15:21;;;;;;;;;;;13.20;99.90;;;;;;5063521;28;19920;-56
2022/05/24 11:17:47;;;;;;;;;;;13.10;99.90;;;;;;5083251;28;20376;-55
2022/05/24 11:20:14;;;;;;;;;;;13.00;99.90;;;;;;5085289;28;19927;-55
2022/05/24 11:23:00;;;;;;;;;;;12.90;99.90;;;;;;5084512;28;19924;-48
2022/05/24 11:25:27;;;;;;;;;;;12.90;99.90;;;;;;5085026;28;21041;-59
2022/05/24 11:28:13;;;;;;;;;;;12.90;99.90;;;;;;5081465;28;19942;-55
2022/05/24 11:30:40;;;;;;;;;;;12.90;99.90;;;;;;5055418;28;19931;-55
2022/05/24 11:33:06;;;;;;;;;;;13.00;99.90;;;;;;5088833;28;20002;-56
2022/05/24 11:35:35;;;;;;;;;;;13.10;99.90;;;;;;5100742;28;20068;-62
2022/05/24 11:38:10;;;;;;;;;;;13.20;99.90;;;;;;5103238;28;19919;-55
2022/05/24 11:40:36;;;;;;;;;;;13.40;99.90;;;;;;5103297;28;20415;-56
2022/05/24 11:43:10;;;;;;;;;;;13.60;99.90;;;;;;5106509;28;19942;-57
2022/05/24 11:45:38;;;;;;;;;;;13.80;99.90;;;;;;5102765;28;19924;-48
2022/05/24 11:48:06;;;;;;;;;;;14.10;99.90;;;;;;5087125;28;19959;-55
2022/05/24 11:50:40;;;;;;;;;;;14.20;99.90;;;;;;5102399;28;19920;-51
2022/05/24 11:53:15;;;;;;;;;;;14.50;99.90;;;;;;5102286;28;19951;-55
2022/05/24 11:55:44;;;;;;;;;;;14.70;99.90;;;;;;5097260;28;19928;-52
2022/05/24 11:58:21;;;;;;;;;;;15.00;99.90;;;;;;5107800;28;20014;-55
2022/05/24 12:00:56;;;;;;;;;;;15.20;99.90;;;;;;5102650;28;19920;-57
2022/05/24 12:09:11;;;;;;;;;;;15.40;99.90;;;;;;5103805;28;19934;-56
2022/05/24 12:11:36;;;;;;;;;;;15.70;99.90;;;;;;5103357;28;19928;-56
2022/05/24 12:14:16;;;;;;;;;;;15.90;99.90;;;;;;5110132;28;19943;-56
2022/05/24 12:16:54;;;;;;;;;;;15.90;99.90;;;;;;5110974;28;19932;-57
2022/05/24 12:19:34;;;;;;;;;;;15.80;99.90;;;;;;5106704;28;19931;-53
2022/05/24 12:22:07;;;;;;;;;;;16.10;99.90;;;;;;5111746;28;19931;-53
2022/05/24 12:24:35;;;;;;;;;;;16.40;99.90;;;;;;5105580;28;19924;-55
2022/05/24 12:27:19;;;;;;;;;;;16.30;97.30;;;;;;5108142;28;19973;-56
2022/05/24 12:29:47;;;;;;;;;;;16.30;99.10;;;;;;5099815;28;19928;-55
2022/05/24 12:32:15;;;;;;;;;;;16.60;99.90;;;;;;5108680;28;20030;-56
2022/05/24 12:34:41;;;;;;;;;;;16.80;96.60;;;;;;5102488;28;19924;-55
2022/05/24 12:37:15;;;;;;;;;;;16.70;96.40;;;;;;5091129;28;19924;-56
2022/05/24 12:39:41;;;;;;;;;;;16.80;97.60;;;;;;5087427;28;20274;-52
2022/05/24 12:42:12;;;;;;;;;;;16.80;94.50;;;;;;5087822;28;19931;-56
2022/05/24 12:44:47;;;;;;;;;;;16.90;95.70;;;;;;5091466;28;19962;-52
2022/05/24 12:47:15;;;;;;;;;;;17.20;96.60;;;;;;5090498;28;19943;-57
2022/05/24 12:49:50;;;;;;;;;;;17.20;94.30;;;;;;5089283;28;19925;-51
2022/05/24 12:52:23;;;;;;;;;;;17.30;93.30;;;;;;5089687;28;19967;-56
2022/05/24 12:54:49;;;;;;;;;;;17.40;87.20;;;;;;5087683;28;19959;-56
2022/05/24 12:57:21;;;;;;;;;;;17.40;85.40;;;;;;5089608;28;19975;-55
2022/05/24 12:59:51;;;;;;;;;;;17.40;87.50;;;;;;5088938;28;19971;-48
2022/05/24 13:02:25;;;;;;;;;;;17.40;86.50;;;;;;5086196;28;20398;-55
2022/05/24 13:04:51;;;;;;;;;;;17.20;89.10;;;;;;5089945;28;19936;-56
2022/05/24 13:07:37;;;;;;;;;;;17.00;90.60;;;;;;5084017;28;20008;-56
2022/05/24 13:10:06;;;;;;;;;;;16.90;91.10;;;;;;5067369;28;20514;-55
2022/05/24 13:12:33;;;;;;;;;;;17.20;88.30;;;;;;5080560;28;19947;-54
2022/05/24 13:15:00;;;;;;;;;;;17.40;83.30;;;;;;5087152;28;19978;-57
2022/05/24 13:17:28;;;;;;;;;;;17.40;82.70;;;;;;5087145;28;20018;-57
2022/05/24 13:19:53;;;;;;;;;;;17.30;78.20;;;;;;5082520;28;19927;-49
2022/05/24 13:22:20;;;;;;;;;;;17.30;83.50;;;;;;5089438;28;19928;-57
2022/05/24 13:24:55;;;;;;;;;;;17.30;84.50;;;;;;5062928;28;19928;-53
2022/05/24 13:27:20;;;;;;;;;;;17.20;78.50;;;;;;5086678;28;20300;-52
2022/05/24 13:35:25;;;;;;;;;;;17.40;79.50;;;;;;5083694;28;20154;-54
2022/05/24 13:37:52;;;;;;;;;;;17.90;80.80;;;;;;5092691;28;19939;-56
2022/05/24 13:40:18;;;;;;;;;;;18.20;75.10;;;;;;5081242;28;19920;-57
2022/05/24 13:42:52;;;;;;;;;;;18.10;75.60;;;;;;5104909;28;19920;-56
2022/05/24 13:45:27;;;;;;;;;;;18.10;74.90;;;;;;5090762;28;19920;-57
2022/05/24 13:47:57;;;;;;;;;;;18.20;75.60;;;;;;5091074;28;19928;-57
2022/05/24 13:50:22;;;;;;;;;;;18.30;77.30;;;;;;5088648;28;19920;-55
2022/05/24 13:52:52;;;;;;;;;;;18.20;79.20;;;;;;5082350;28;19935;-56
2022/05/24 13:55:27;;;;;;;;;;;18.40;78.60;;;;;;5090946;28;19942;-56
2022/05/24 13:58:02;;;;;;;;;;;18.30;76.50;;;;;;5085468;28;19924;-57
2022/05/24 14:00:31;;;;;;;;;;;18.00;77.10;;;;;;5084900;28;20361;-53
2022/05/24 14:03:21;;;;;;;;;;;17.70;76.30;;;;;;5079721;28;19920;-56
2022/05/24 14:05:51;;;;;;;;;;;17.50;79.80;;;;;;5088605;28;19935;-56
2022/05/24 14:08:17;;;;;;;;;;;17.60;81.40;;;;;;5083454;28;19978;-53
2022/05/24 14:10:43;;;;;;;;;;;18.00;79.00;;;;;;5082537;28;19963;-56
2022/05/24 14:13:08;;;;;;;;;;;18.30;73.90;;;;;;5087372;28;19920;-56
2022/05/24 14:15:35;;;;;;;;;;;18.50;71.50;;;;;;5081556;28;19989;-53
2022/05/24 14:18:03;;;;;;;;;;;19.00;70.00;;;;;;5096242;28;19934;-54
2022/05/24 14:20:29;;;;;;;;;;;19.40;65.60;;;;;;5089229;28;19920;-56
2022/05/24 14:22:54;;;;;;;;;;;19.70;63.30;;;;;;5101012;28;19920;-56
2022/05/24 14:25:20;;;;;;;;;;;19.70;62.80;;;;;;5096022;28;20304;-56
2022/05/24 14:27:46;;;;;;;;;;;19.50;64.10;;;;;;5097094;28;19928;-55
2022/05/24 14:30:12;;;;;;;;;;;19.60;65.90;;;;;;5090086;28;19924;-55
2022/05/24 14:32:38;;;;;;;;;;;19.50;62.10;;;;;;5084280;28;19927;-56
2022/05/24 14:35:05;;;;;;;;;;;19.50;62.10;;;;;;5084342;28;20360;-56
2022/05/24 14:37:31;;;;;;;;;;;19.80;62.30;;;;;;5107858;28;20396;-54
2022/05/24 14:39:56;;;;;;;;;;;20.00;60.70;;;;;;5109062;28;19972;-56
2022/05/24 14:42:22;;;;;;;;;;;19.90;60.10;;;;;;5101445;28;19924;-56
2022/05/24 14:44:48;;;;;;;;;;;19.70;62.10;;;;;;5103065;28;19994;-52
2022/05/24 14:47:14;;;;;;;;;;;19.80;59.10;;;;;;5102769;28;19927;-56
2022/05/24 14:49:40;;;;;;;;;;;19.70;59.00;;;;;;5107482;28;20437;-52
2022/05/24 14:52:07;;;;;;;;;;;19.50;62.50;;;;;;5107975;28;19924;-54
2022/05/24 14:54:36;;;;;;;;;;;19.30;63.00;;;;;;5104722;28;20035;-56
2022/05/24 14:57:02;;;;;;;;;;;18.90;64.70;;;;;;5105643;28;19932;-49
2022/05/24 14:59:27;;;;;;;;;;;18.60;67.10;;;;;;5101996;28;19927;-54
2022/05/24 15:01:53;;;;;;;;;;;18.80;61.10;;;;;;5106246;28;20342;-50
2022/05/24 15:04:19;;;;;;;;;;;18.80;62.50;;;;;;5100940;28;20380;-51
2022/05/24 15:06:46;;;;;;;;;;;18.60;65.30;;;;;;5100312;28;20111;-56
2022/05/24 15:17:44;;;;;;;;;;;19.10;67.80;;;;;;5038362;28;20370;-58
2022/05/24 15:20:12;;;;;;;;;;;20.10;57.60;;;;;;5043761;28;20063;-57
2022/05/24 15:22:44;;;;;;;;;;;20.40;56.30;;;;;;5070006;28;20066;-58
2022/05/24 15:25:10;;;;;;;;;;;21.00;54.70;;;;;;5105978;28;19919;-57